sensor_id;sensor_type;location;lat;lon;timestamp;P1;durP1;ratioP1;P2;durP2;ratioP2
6354;SDS011;3210;48.708;9.030;2022-07-11T00:02:16;1.97;;;1.10;;
6354;SDS011;3210;48.708;9.030;2022-07-11T00:04:44;1.50;;;0.87;;
6354;SDS011;3210;48.708;9.030;2022-07-11T00:07:11;1.30;;;0.70;;
6354;SDS011;3210;48.708;9.030;2022-07-11T00:09:39;2.17;;;0.80;;
6354;SDS011;3210;48.708;9.030;2022-07-11T00:12:06;1.57;;;0.80;;
6354;SDS011;3210;48.708;9.030;2022-07-11T00:14:34;3.80;;;1.00;;
6354;SDS011;3210;48.708;9.030;2022-07-11T00:17:05;3.23;;;1.00;;
6354;SDS011;3210;48.708;9.030;2022-07-11T00:19:33;3.30;;;1.00;;
6354;SDS011;3210;48.708;9.030;2022-07-11T00:22:00;2.93;;;1.10;;
6354;SDS011;3210;48.708;9.030;2022-07-11T00:24:27;2.07;;;1.13;;
6354;SDS011;3210;48.708;9.030;2022-07-11T00:26:54;2.37;;;1.17;;
6354;SDS011;3210;48.708;9.030;2022-07-11T00:29:21;2.33;;;1.33;;
6354;SDS011;3210;48.708;9.030;2022-07-11T00:31:48;2.70;;;0.90;;
6354;SDS011;3210;48.708;9.030;2022-07-11T00:34:16;2.73;;;0.80;;
6354;SDS011;3210;48.708;9.030;2022-07-11T00:36:43;1.47;;;0.90;;
6354;SDS011;3210;48.708;9.030;2022-07-11T00:39:10;4.47;;;1.00;;
6354;SDS011;3210;48.708;9.030;2022-07-11T00:41:37;2.00;;;1.10;;
6354;SDS011;3210;48.708;9.030;2022-07-11T00:44:04;2.43;;;1.70;;
6354;SDS011;3210;48.708;9.030;2022-07-11T00:46:31;2.23;;;0.83;;
6354;SDS011;3210;48.708;9.030;2022-07-11T00:48:58;2.07;;;1.40;;
6354;SDS011;3210;48.708;9.030;2022-07-11T00:51:27;2.50;;;1.00;;
6354;SDS011;3210;48.708;9.030;2022-07-11T00:53:55;7.50;;;1.53;;
6354;SDS011;3210;48.708;9.030;2022-07-11T00:56:24;2.10;;;1.23;;
6354;SDS011;3210;48.708;9.030;2022-07-11T00:58:52;1.50;;;0.90;;
6354;SDS011;3210;48.708;9.030;2022-07-11T01:01:19;1.57;;;1.27;;
6354;SDS011;3210;48.708;9.030;2022-07-11T01:03:47;2.60;;;0.90;;
6354;SDS011;3210;48.708;9.030;2022-07-11T01:06:14;1.57;;;0.93;;
6354;SDS011;3210;48.708;9.030;2022-07-11T01:08:43;1.80;;;0.83;;
6354;SDS011;3210;48.708;9.030;2022-07-11T01:11:11;4.00;;;1.20;;
6354;SDS011;3210;48.708;9.030;2022-07-11T01:13:40;2.77;;;1.30;;
6354;SDS011;3210;48.708;9.030;2022-07-11T01:16:08;3.47;;;1.10;;
6354;SDS011;3210;48.708;9.030;2022-07-11T01:18:36;3.67;;;0.97;;
6354;SDS011;3210;48.708;9.030;2022-07-11T01:21:03;3.23;;;1.00;;
6354;SDS011;3210;48.708;9.030;2022-07-11T01:23:44;1.50;;;0.83;;
6354;SDS011;3210;48.708;9.030;2022-07-11T01:26:11;5.03;;;1.20;;
6354;SDS011;3210;48.708;9.030;2022-07-11T01:28:38;1.03;;;0.80;;
6354;SDS011;3210;48.708;9.030;2022-07-11T01:31:05;2.47;;;0.80;;
6354;SDS011;3210;48.708;9.030;2022-07-11T01:33:32;1.20;;;0.70;;
6354;SDS011;3210;48.708;9.030;2022-07-11T01:35:59;1.67;;;1.00;;
6354;SDS011;3210;48.708;9.030;2022-07-11T01:38:27;1.17;;;0.93;;
6354;SDS011;3210;48.708;9.030;2022-07-11T01:40:55;3.57;;;1.23;;
6354;SDS011;3210;48.708;9.030;2022-07-11T01:43:22;2.70;;;1.37;;
6354;SDS011;3210;48.708;9.030;2022-07-11T01:45:50;1.77;;;0.97;;
6354;SDS011;3210;48.708;9.030;2022-07-11T01:48:17;3.00;;;1.00;;
6354;SDS011;3210;48.708;9.030;2022-07-11T01:50:44;2.33;;;1.07;;
6354;SDS011;3210;48.708;9.030;2022-07-11T01:53:11;2.73;;;1.40;;
6354;SDS011;3210;48.708;9.030;2022-07-11T01:55:37;1.70;;;0.90;;
6354;SDS011;3210;48.708;9.030;2022-07-11T01:58:06;2.72;;;1.20;;
6354;SDS011;3210;48.708;9.030;2022-07-11T02:00:32;10.47;;;1.20;;
6354;SDS011;3210;48.708;9.030;2022-07-11T02:02:59;1.83;;;1.10;;
6354;SDS011;3210;48.708;9.030;2022-07-11T02:05:26;1.83;;;1.23;;
6354;SDS011;3210;48.708;9.030;2022-07-11T02:07:53;2.70;;;1.50;;
6354;SDS011;3210;48.708;9.030;2022-07-11T02:10:38;4.57;;;1.17;;
6354;SDS011;3210;48.708;9.030;2022-07-11T02:13:08;3.03;;;1.20;;
6354;SDS011;3210;48.708;9.030;2022-07-11T02:15:35;1.50;;;1.30;;
6354;SDS011;3210;48.708;9.030;2022-07-11T02:18:04;2.53;;;1.37;;
6354;SDS011;3210;48.708;9.030;2022-07-11T02:20:31;2.93;;;1.20;;
6354;SDS011;3210;48.708;9.030;2022-07-11T02:22:58;1.40;;;1.20;;
6354;SDS011;3210;48.708;9.030;2022-07-11T02:25:26;3.80;;;1.40;;
6354;SDS011;3210;48.708;9.030;2022-07-11T02:27:53;2.03;;;1.30;;
6354;SDS011;3210;48.708;9.030;2022-07-11T02:30:21;1.20;;;0.87;;
6354;SDS011;3210;48.708;9.030;2022-07-11T02:32:49;2.40;;;1.20;;
6354;SDS011;3210;48.708;9.030;2022-07-11T02:35:19;1.93;;;1.10;;
6354;SDS011;3210;48.708;9.030;2022-07-11T02:37:46;1.80;;;1.40;;
6354;SDS011;3210;48.708;9.030;2022-07-11T02:40:13;1.50;;;1.10;;
6354;SDS011;3210;48.708;9.030;2022-07-11T02:42:40;1.53;;;1.00;;
6354;SDS011;3210;48.708;9.030;2022-07-11T02:45:07;1.90;;;0.90;;
6354;SDS011;3210;48.708;9.030;2022-07-11T02:47:36;2.83;;;0.90;;
6354;SDS011;3210;48.708;9.030;2022-07-11T02:50:05;1.40;;;1.20;;
6354;SDS011;3210;48.708;9.030;2022-07-11T02:52:33;1.40;;;0.90;;
6354;SDS011;3210;48.708;9.030;2022-07-11T02:55:00;4.03;;;1.10;;
6354;SDS011;3210;48.708;9.030;2022-07-11T02:57:27;5.93;;;1.60;;
6354;SDS011;3210;48.708;9.030;2022-07-11T02:59:54;1.50;;;1.27;;
6354;SDS011;3210;48.708;9.030;2022-07-11T03:02:21;2.97;;;1.47;;
6354;SDS011;3210;48.708;9.030;2022-07-11T03:04:49;2.23;;;1.20;;
6354;SDS011;3210;48.708;9.030;2022-07-11T03:07:16;1.27;;;0.87;;
6354;SDS011;3210;48.708;9.030;2022-07-11T03:09:43;3.67;;;1.33;;
6354;SDS011;3210;48.708;9.030;2022-07-11T03:12:10;1.87;;;1.20;;
6354;SDS011;3210;48.708;9.030;2022-07-11T03:14:37;1.90;;;1.40;;
6354;SDS011;3210;48.708;9.030;2022-07-11T03:17:04;3.90;;;1.33;;
6354;SDS011;3210;48.708;9.030;2022-07-11T03:19:31;10.47;;;1.60;;
6354;SDS011;3210;48.708;9.030;2022-07-11T03:21:59;2.50;;;1.27;;
6354;SDS011;3210;48.708;9.030;2022-07-11T03:24:26;5.17;;;1.70;;
6354;SDS011;3210;48.708;9.030;2022-07-11T03:26:52;1.70;;;1.00;;
6354;SDS011;3210;48.708;9.030;2022-07-11T03:29:19;4.90;;;1.43;;
6354;SDS011;3210;48.708;9.030;2022-07-11T03:31:46;1.50;;;1.30;;
6354;SDS011;3210;48.708;9.030;2022-07-11T03:34:13;1.87;;;1.40;;
6354;SDS011;3210;48.708;9.030;2022-07-11T03:36:40;1.73;;;1.10;;
6354;SDS011;3210;48.708;9.030;2022-07-11T03:39:08;2.17;;;1.40;;
6354;SDS011;3210;48.708;9.030;2022-07-11T03:41:35;1.33;;;1.20;;
6354;SDS011;3210;48.708;9.030;2022-07-11T03:44:01;2.53;;;1.50;;
6354;SDS011;3210;48.708;9.030;2022-07-11T03:46:28;2.20;;;1.40;;
6354;SDS011;3210;48.708;9.030;2022-07-11T03:48:55;4.63;;;1.60;;
6354;SDS011;3210;48.708;9.030;2022-07-11T03:51:23;3.70;;;1.50;;
6354;SDS011;3210;48.708;9.030;2022-07-11T03:53:49;3.53;;;1.63;;
6354;SDS011;3210;48.708;9.030;2022-07-11T03:56:17;2.77;;;1.70;;
6354;SDS011;3210;48.708;9.030;2022-07-11T03:58:47;2.50;;;1.60;;
6354;SDS011;3210;48.708;9.030;2022-07-11T04:01:14;1.77;;;1.67;;
6354;SDS011;3210;48.708;9.030;2022-07-11T04:03:41;2.30;;;1.30;;
6354;SDS011;3210;48.708;9.030;2022-07-11T04:06:08;2.00;;;1.50;;
6354;SDS011;3210;48.708;9.030;2022-07-11T04:08:35;3.17;;;1.37;;
6354;SDS011;3210;48.708;9.030;2022-07-11T04:11:02;2.10;;;1.63;;
6354;SDS011;3210;48.708;9.030;2022-07-11T04:13:30;5.53;;;1.47;;
6354;SDS011;3210;48.708;9.030;2022-07-11T04:15:57;2.37;;;1.30;;
6354;SDS011;3210;48.708;9.030;2022-07-11T04:18:24;2.73;;;1.73;;
6354;SDS011;3210;48.708;9.030;2022-07-11T04:20:51;1.43;;;1.23;;
6354;SDS011;3210;48.708;9.030;2022-07-11T04:23:18;1.53;;;1.37;;
6354;SDS011;3210;48.708;9.030;2022-07-11T04:25:45;3.93;;;1.40;;
6354;SDS011;3210;48.708;9.030;2022-07-11T04:28:12;2.63;;;1.67;;
6354;SDS011;3210;48.708;9.030;2022-07-11T04:30:40;6.53;;;1.80;;
6354;SDS011;3210;48.708;9.030;2022-07-11T04:33:07;1.50;;;1.40;;
6354;SDS011;3210;48.708;9.030;2022-07-11T04:35:34;2.30;;;1.37;;
6354;SDS011;3210;48.708;9.030;2022-07-11T04:38:01;1.90;;;1.40;;
6354;SDS011;3210;48.708;9.030;2022-07-11T04:40:27;5.70;;;2.53;;
6354;SDS011;3210;48.708;9.030;2022-07-11T04:42:55;1.60;;;1.43;;
6354;SDS011;3210;48.708;9.030;2022-07-11T04:45:21;2.30;;;1.60;;
6354;SDS011;3210;48.708;9.030;2022-07-11T04:47:50;3.63;;;2.23;;
6354;SDS011;3210;48.708;9.030;2022-07-11T04:50:16;3.47;;;2.40;;
6354;SDS011;3210;48.708;9.030;2022-07-11T04:52:43;3.27;;;1.70;;
6354;SDS011;3210;48.708;9.030;2022-07-11T04:55:10;3.93;;;2.23;;
6354;SDS011;3210;48.708;9.030;2022-07-11T04:57:37;2.17;;;1.60;;
6354;SDS011;3210;48.708;9.030;2022-07-11T05:00:04;2.77;;;2.03;;
6354;SDS011;3210;48.708;9.030;2022-07-11T05:02:32;2.40;;;1.77;;
6354;SDS011;3210;48.708;9.030;2022-07-11T05:05:01;4.30;;;1.63;;
6354;SDS011;3210;48.708;9.030;2022-07-11T05:07:27;4.23;;;1.77;;
6354;SDS011;3210;48.708;9.030;2022-07-11T05:09:54;8.97;;;1.93;;
6354;SDS011;3210;48.708;9.030;2022-07-11T05:12:22;4.33;;;2.00;;
6354;SDS011;3210;48.708;9.030;2022-07-11T05:14:49;2.70;;;2.00;;
6354;SDS011;3210;48.708;9.030;2022-07-11T05:17:16;2.50;;;2.30;;
6354;SDS011;3210;48.708;9.030;2022-07-11T05:19:43;11.87;;;3.37;;
6354;SDS011;3210;48.708;9.030;2022-07-11T05:22:11;5.43;;;2.60;;
6354;SDS011;3210;48.708;9.030;2022-07-11T05:24:38;259.73;;;25.87;;
6354;SDS011;3210;48.708;9.030;2022-07-11T05:27:05;147.33;;;19.10;;
6354;SDS011;3210;48.708;9.030;2022-07-11T05:29:32;25.00;;;5.17;;
6354;SDS011;3210;48.708;9.030;2022-07-11T05:31:59;17.63;;;4.63;;
6354;SDS011;3210;48.708;9.030;2022-07-11T05:34:25;22.53;;;4.60;;
6354;SDS011;3210;48.708;9.030;2022-07-11T05:36:52;22.07;;;5.00;;
6354;SDS011;3210;48.708;9.030;2022-07-11T05:39:20;7.37;;;4.27;;
6354;SDS011;3210;48.708;9.030;2022-07-11T05:41:47;12.23;;;3.90;;
6354;SDS011;3210;48.708;9.030;2022-07-11T05:44:16;5.50;;;3.53;;
6354;SDS011;3210;48.708;9.030;2022-07-11T05:46:43;8.65;;;2.92;;
6354;SDS011;3210;48.708;9.030;2022-07-11T05:49:10;4.83;;;3.50;;
6354;SDS011;3210;48.708;9.030;2022-07-11T05:51:38;5.87;;;3.73;;
6354;SDS011;3210;48.708;9.030;2022-07-11T05:54:05;5.40;;;3.17;;
6354;SDS011;3210;48.708;9.030;2022-07-11T05:56:33;4.33;;;3.90;;
6354;SDS011;3210;48.708;9.030;2022-07-11T05:59:00;9.13;;;3.93;;
6354;SDS011;3210;48.708;9.030;2022-07-11T06:01:28;4.93;;;3.83;;
6354;SDS011;3210;48.708;9.030;2022-07-11T06:03:57;8.70;;;3.40;;
6354;SDS011;3210;48.708;9.030;2022-07-11T06:06:24;4.03;;;3.20;;
6354;SDS011;3210;48.708;9.030;2022-07-11T06:08:51;5.83;;;3.30;;
6354;SDS011;3210;48.708;9.030;2022-07-11T06:11:18;7.73;;;3.33;;
6354;SDS011;3210;48.708;9.030;2022-07-11T06:13:47;6.60;;;3.10;;
6354;SDS011;3210;48.708;9.030;2022-07-11T06:16:14;3.73;;;2.97;;
6354;SDS011;3210;48.708;9.030;2022-07-11T06:18:42;5.47;;;3.20;;
6354;SDS011;3210;48.708;9.030;2022-07-11T06:21:09;6.73;;;3.90;;
6354;SDS011;3210;48.708;9.030;2022-07-11T06:23:36;7.60;;;3.30;;
6354;SDS011;3210;48.708;9.030;2022-07-11T06:26:03;3.70;;;3.17;;
6354;SDS011;3210;48.708;9.030;2022-07-11T06:28:30;4.07;;;3.40;;
6354;SDS011;3210;48.708;9.030;2022-07-11T06:30:59;5.40;;;3.93;;
6354;SDS011;3210;48.708;9.030;2022-07-11T06:33:26;3.13;;;2.83;;
6354;SDS011;3210;48.708;9.030;2022-07-11T06:35:53;5.20;;;3.23;;
6354;SDS011;3210;48.708;9.030;2022-07-11T06:38:20;6.97;;;2.73;;
6354;SDS011;3210;48.708;9.030;2022-07-11T06:40:47;5.60;;;4.30;;
6354;SDS011;3210;48.708;9.030;2022-07-11T06:43:14;35.17;;;6.00;;
6354;SDS011;3210;48.708;9.030;2022-07-11T06:45:41;3.50;;;2.70;;
6354;SDS011;3210;48.708;9.030;2022-07-11T06:48:09;3.80;;;2.07;;
6354;SDS011;3210;48.708;9.030;2022-07-11T06:50:36;2.30;;;2.10;;
6354;SDS011;3210;48.708;9.030;2022-07-11T06:53:03;3.70;;;2.47;;
6354;SDS011;3210;48.708;9.030;2022-07-11T06:55:30;4.03;;;2.00;;
6354;SDS011;3210;48.708;9.030;2022-07-11T06:57:57;4.80;;;2.30;;
6354;SDS011;3210;48.708;9.030;2022-07-11T07:00:24;3.60;;;2.73;;
6354;SDS011;3210;48.708;9.030;2022-07-11T07:02:52;8.13;;;2.37;;
6354;SDS011;3210;48.708;9.030;2022-07-11T07:05:22;7.07;;;2.43;;
6354;SDS011;3210;48.708;9.030;2022-07-11T07:07:49;8.87;;;2.23;;
6354;SDS011;3210;48.708;9.030;2022-07-11T07:10:17;5.27;;;2.47;;
6354;SDS011;3210;48.708;9.030;2022-07-11T07:12:47;3.37;;;2.47;;
6354;SDS011;3210;48.708;9.030;2022-07-11T07:15:13;2.70;;;2.07;;
6354;SDS011;3210;48.708;9.030;2022-07-11T07:17:40;3.03;;;2.40;;
6354;SDS011;3210;48.708;9.030;2022-07-11T07:20:07;4.57;;;2.57;;
6354;SDS011;3210;48.708;9.030;2022-07-11T07:22:38;2.50;;;2.20;;
6354;SDS011;3210;48.708;9.030;2022-07-11T07:25:06;1.80;;;1.43;;
6354;SDS011;3210;48.708;9.030;2022-07-11T07:27:34;2.17;;;1.97;;
6354;SDS011;3210;48.708;9.030;2022-07-11T07:30:01;2.70;;;1.87;;
6354;SDS011;3210;48.708;9.030;2022-07-11T07:32:28;3.97;;;2.10;;
6354;SDS011;3210;48.708;9.030;2022-07-11T07:34:55;1.97;;;1.73;;
6354;SDS011;3210;48.708;9.030;2022-07-11T07:37:22;1.77;;;1.67;;
6354;SDS011;3210;48.708;9.030;2022-07-11T07:39:50;1.77;;;1.10;;
6354;SDS011;3210;48.708;9.030;2022-07-11T07:42:17;2.60;;;1.60;;
6354;SDS011;3210;48.708;9.030;2022-07-11T07:44:44;1.70;;;1.60;;
6354;SDS011;3210;48.708;9.030;2022-07-11T07:47:10;1.97;;;1.50;;
6354;SDS011;3210;48.708;9.030;2022-07-11T07:49:37;3.17;;;1.50;;
6354;SDS011;3210;48.708;9.030;2022-07-11T07:52:04;2.10;;;1.70;;
6354;SDS011;3210;48.708;9.030;2022-07-11T07:54:31;1.67;;;1.20;;
6354;SDS011;3210;48.708;9.030;2022-07-11T07:57:00;1.60;;;1.20;;
6354;SDS011;3210;48.708;9.030;2022-07-11T07:59:26;1.63;;;1.00;;
6354;SDS011;3210;48.708;9.030;2022-07-11T08:01:53;1.40;;;1.10;;
6354;SDS011;3210;48.708;9.030;2022-07-11T08:04:19;1.20;;;0.90;;
6354;SDS011;3210;48.708;9.030;2022-07-11T08:06:46;3.50;;;1.30;;
6354;SDS011;3210;48.708;9.030;2022-07-11T08:09:13;3.27;;;1.07;;
6354;SDS011;3210;48.708;9.030;2022-07-11T08:11:40;1.53;;;0.90;;
6354;SDS011;3210;48.708;9.030;2022-07-11T08:14:08;2.33;;;0.97;;
6354;SDS011;3210;48.708;9.030;2022-07-11T08:16:35;1.40;;;0.57;;
6354;SDS011;3210;48.708;9.030;2022-07-11T08:19:04;1.00;;;0.60;;
6354;SDS011;3210;48.708;9.030;2022-07-11T08:21:32;0.90;;;0.53;;
6354;SDS011;3210;48.708;9.030;2022-07-11T08:24:00;1.70;;;0.57;;
6354;SDS011;3210;48.708;9.030;2022-07-11T08:26:27;6.20;;;0.60;;
6354;SDS011;3210;48.708;9.030;2022-07-11T08:28:54;1.30;;;0.70;;
6354;SDS011;3210;48.708;9.030;2022-07-11T08:31:23;2.67;;;0.90;;
6354;SDS011;3210;48.708;9.030;2022-07-11T08:33:50;1.20;;;0.60;;
6354;SDS011;3210;48.708;9.030;2022-07-11T08:36:17;1.20;;;0.40;;
6354;SDS011;3210;48.708;9.030;2022-07-11T08:38:44;1.17;;;0.60;;
6354;SDS011;3210;48.708;9.030;2022-07-11T08:41:12;1.33;;;0.60;;
6354;SDS011;3210;48.708;9.030;2022-07-11T08:43:40;1.00;;;0.60;;
6354;SDS011;3210;48.708;9.030;2022-07-11T08:46:09;1.00;;;0.50;;
6354;SDS011;3210;48.708;9.030;2022-07-11T08:48:39;1.00;;;0.60;;
6354;SDS011;3210;48.708;9.030;2022-07-11T08:51:06;1.00;;;0.63;;
6354;SDS011;3210;48.708;9.030;2022-07-11T08:53:37;2.27;;;0.90;;
6354;SDS011;3210;48.708;9.030;2022-07-11T08:56:07;1.30;;;0.70;;
6354;SDS011;3210;48.708;9.030;2022-07-11T08:58:40;1.00;;;0.60;;
6354;SDS011;3210;48.708;9.030;2022-07-11T09:01:12;1.00;;;0.60;;
6354;SDS011;3210;48.708;9.030;2022-07-11T09:03:44;0.90;;;0.40;;
6354;SDS011;3210;48.708;9.030;2022-07-11T09:06:11;1.20;;;0.60;;
6354;SDS011;3210;48.708;9.030;2022-07-11T09:08:38;2.33;;;0.80;;
6354;SDS011;3210;48.708;9.030;2022-07-11T09:11:05;1.30;;;0.67;;
6354;SDS011;3210;48.708;9.030;2022-07-11T09:13:32;3.27;;;0.90;;
6354;SDS011;3210;48.708;9.030;2022-07-11T09:16:03;2.13;;;1.07;;
6354;SDS011;3210;48.708;9.030;2022-07-11T09:18:32;3.43;;;0.97;;
6354;SDS011;3210;48.708;9.030;2022-07-11T09:21:03;1.27;;;0.70;;
6354;SDS011;3210;48.708;9.030;2022-07-11T09:23:50;1.60;;;0.90;;
6354;SDS011;3210;48.708;9.030;2022-07-11T09:26:36;1.50;;;0.70;;
6354;SDS011;3210;48.708;9.030;2022-07-11T09:29:05;1.83;;;0.70;;
6354;SDS011;3210;48.708;9.030;2022-07-11T09:31:33;1.00;;;0.60;;
6354;SDS011;3210;48.708;9.030;2022-07-11T09:34:05;1.10;;;0.77;;
6354;SDS011;3210;48.708;9.030;2022-07-11T09:36:39;1.63;;;1.00;;
6354;SDS011;3210;48.708;9.030;2022-07-11T09:39:08;1.00;;;0.70;;
6354;SDS011;3210;48.708;9.030;2022-07-11T09:41:37;1.00;;;0.63;;
6354;SDS011;3210;48.708;9.030;2022-07-11T09:44:08;1.00;;;0.70;;
6354;SDS011;3210;48.708;9.030;2022-07-11T09:46:39;1.43;;;0.70;;
6354;SDS011;3210;48.708;9.030;2022-07-11T09:49:07;1.20;;;0.90;;
6354;SDS011;3210;48.708;9.030;2022-07-11T09:51:35;1.13;;;0.70;;
6354;SDS011;3210;48.708;9.030;2022-07-11T09:54:04;1.10;;;0.60;;
6354;SDS011;3210;48.708;9.030;2022-07-11T09:56:32;1.20;;;0.73;;
6354;SDS011;3210;48.708;9.030;2022-07-11T09:59:00;1.10;;;0.60;;
6354;SDS011;3210;48.708;9.030;2022-07-11T10:01:29;2.10;;;0.70;;
6354;SDS011;3210;48.708;9.030;2022-07-11T10:03:57;1.10;;;0.90;;
6354;SDS011;3210;48.708;9.030;2022-07-11T10:06:24;1.20;;;0.80;;
6354;SDS011;3210;48.708;9.030;2022-07-11T10:08:51;2.17;;;0.70;;
6354;SDS011;3210;48.708;9.030;2022-07-11T10:11:20;1.93;;;0.83;;
6354;SDS011;3210;48.708;9.030;2022-07-11T10:13:47;2.43;;;0.93;;
6354;SDS011;3210;48.708;9.030;2022-07-11T10:19:06;1.30;;;0.60;;
6354;SDS011;3210;48.708;9.030;2022-07-11T10:21:40;5.30;;;0.70;;
6354;SDS011;3210;48.708;9.030;2022-07-11T10:24:15;1.20;;;0.70;;
6354;SDS011;3210;48.708;9.030;2022-07-11T10:26:51;1.00;;;0.70;;
6354;SDS011;3210;48.708;9.030;2022-07-11T10:29:27;1.90;;;0.63;;
6354;SDS011;3210;48.708;9.030;2022-07-11T10:32:03;2.23;;;0.43;;
6354;SDS011;3210;48.708;9.030;2022-07-11T10:34:31;4.27;;;0.80;;
6354;SDS011;3210;48.708;9.030;2022-07-11T10:36:59;1.63;;;0.70;;
6354;SDS011;3210;48.708;9.030;2022-07-11T10:39:27;1.50;;;1.00;;
6354;SDS011;3210;48.708;9.030;2022-07-11T10:41:56;1.20;;;0.63;;
6354;SDS011;3210;48.708;9.030;2022-07-11T10:44:24;1.63;;;1.10;;
6354;SDS011;3210;48.708;9.030;2022-07-11T10:46:51;1.10;;;0.70;;
6354;SDS011;3210;48.708;9.030;2022-07-11T10:49:21;2.07;;;0.73;;
6354;SDS011;3210;48.708;9.030;2022-07-11T10:52:03;3.97;;;0.97;;
6354;SDS011;3210;48.708;9.030;2022-07-11T10:54:34;1.30;;;0.80;;
6354;SDS011;3210;48.708;9.030;2022-07-11T10:57:13;2.70;;;0.90;;
6354;SDS011;3210;48.708;9.030;2022-07-11T10:59:56;2.07;;;0.90;;
6354;SDS011;3210;48.708;9.030;2022-07-11T11:02:24;1.10;;;0.90;;
6354;SDS011;3210;48.708;9.030;2022-07-11T11:04:51;1.33;;;0.70;;
6354;SDS011;3210;48.708;9.030;2022-07-11T11:07:38;1.43;;;1.13;;
6354;SDS011;3210;48.708;9.030;2022-07-11T11:10:43;2.07;;;1.00;;
6354;SDS011;3210;48.708;9.030;2022-07-11T11:13:14;2.33;;;0.83;;
6354;SDS011;3210;48.708;9.030;2022-07-11T11:15:42;1.37;;;0.80;;
6354;SDS011;3210;48.708;9.030;2022-07-11T11:21:20;2.53;;;0.80;;
6354;SDS011;3210;48.708;9.030;2022-07-11T11:24:05;1.30;;;0.80;;
6354;SDS011;3210;48.708;9.030;2022-07-11T11:26:41;1.10;;;0.60;;
6354;SDS011;3210;48.708;9.030;2022-07-11T11:29:24;3.80;;;0.73;;
6354;SDS011;3210;48.708;9.030;2022-07-11T11:31:55;1.50;;;0.90;;
6354;SDS011;3210;48.708;9.030;2022-07-11T11:34:23;5.83;;;1.00;;
6354;SDS011;3210;48.708;9.030;2022-07-11T11:36:51;4.10;;;0.90;;
6354;SDS011;3210;48.708;9.030;2022-07-11T11:39:23;1.47;;;0.70;;
6354;SDS011;3210;48.708;9.030;2022-07-11T11:41:51;1.00;;;0.70;;
6354;SDS011;3210;48.708;9.030;2022-07-11T11:44:18;3.30;;;0.80;;
6354;SDS011;3210;48.708;9.030;2022-07-11T11:46:46;2.03;;;1.20;;
6354;SDS011;3210;48.708;9.030;2022-07-11T11:49:18;1.20;;;0.83;;
6354;SDS011;3210;48.708;9.030;2022-07-11T11:51:46;1.63;;;0.73;;
6354;SDS011;3210;48.708;9.030;2022-07-11T11:54:20;1.10;;;0.73;;
6354;SDS011;3210;48.708;9.030;2022-07-11T11:56:48;1.20;;;0.80;;
6354;SDS011;3210;48.708;9.030;2022-07-11T11:59:15;1.20;;;0.80;;
6354;SDS011;3210;48.708;9.030;2022-07-11T12:01:43;1.90;;;1.00;;
6354;SDS011;3210;48.708;9.030;2022-07-11T12:04:12;1.10;;;1.00;;
6354;SDS011;3210;48.708;9.030;2022-07-11T12:06:41;1.77;;;1.17;;
6354;SDS011;3210;48.708;9.030;2022-07-11T12:09:10;11.40;;;1.10;;
6354;SDS011;3210;48.708;9.030;2022-07-11T12:11:38;2.80;;;1.07;;
6354;SDS011;3210;48.708;9.030;2022-07-11T12:14:07;2.13;;;1.23;;
6354;SDS011;3210;48.708;9.030;2022-07-11T12:16:38;9.13;;;0.77;;
6354;SDS011;3210;48.708;9.030;2022-07-11T12:19:08;1.63;;;1.00;;
6354;SDS011;3210;48.708;9.030;2022-07-11T12:21:38;3.30;;;1.20;;
6354;SDS011;3210;48.708;9.030;2022-07-11T12:24:06;2.33;;;0.70;;
6354;SDS011;3210;48.708;9.030;2022-07-11T12:26:35;1.40;;;1.07;;
6354;SDS011;3210;48.708;9.030;2022-07-11T12:29:04;1.77;;;0.90;;
6354;SDS011;3210;48.708;9.030;2022-07-11T12:31:42;2.00;;;1.20;;
6354;SDS011;3210;48.708;9.030;2022-07-11T12:34:11;1.97;;;1.00;;
6354;SDS011;3210;48.708;9.030;2022-07-11T12:36:40;1.20;;;0.87;;
6354;SDS011;3210;48.708;9.030;2022-07-11T12:39:07;3.70;;;1.03;;
6354;SDS011;3210;48.708;9.030;2022-07-11T12:41:34;2.03;;;1.27;;
6354;SDS011;3210;48.708;9.030;2022-07-11T12:44:01;1.20;;;1.07;;
6354;SDS011;3210;48.708;9.030;2022-07-11T12:46:45;1.73;;;0.90;;
6354;SDS011;3210;48.708;9.030;2022-07-11T12:49:15;1.53;;;0.87;;
6354;SDS011;3210;48.708;9.030;2022-07-11T12:51:45;3.90;;;1.20;;
6354;SDS011;3210;48.708;9.030;2022-07-11T12:54:12;2.37;;;1.10;;
6354;SDS011;3210;48.708;9.030;2022-07-11T12:56:40;1.10;;;0.90;;
6354;SDS011;3210;48.708;9.030;2022-07-11T12:59:19;4.17;;;1.10;;
6354;SDS011;3210;48.708;9.030;2022-07-11T13:01:54;3.00;;;1.23;;
6354;SDS011;3210;48.708;9.030;2022-07-11T13:04:29;1.73;;;0.93;;
6354;SDS011;3210;48.708;9.030;2022-07-11T13:10:11;3.10;;;0.80;;
6354;SDS011;3210;48.708;9.030;2022-07-11T13:12:39;2.30;;;1.20;;
6354;SDS011;3210;48.708;9.030;2022-07-11T13:15:07;9.30;;;1.73;;
6354;SDS011;3210;48.708;9.030;2022-07-11T13:17:35;1.80;;;1.20;;
6354;SDS011;3210;48.708;9.030;2022-07-11T13:20:04;3.17;;;1.27;;
6354;SDS011;3210;48.708;9.030;2022-07-11T13:22:34;1.90;;;1.17;;
6354;SDS011;3210;48.708;9.030;2022-07-11T13:25:01;1.73;;;1.00;;
6354;SDS011;3210;48.708;9.030;2022-07-11T13:27:28;1.50;;;1.10;;
6354;SDS011;3210;48.708;9.030;2022-07-11T13:29:55;2.80;;;1.00;;
6354;SDS011;3210;48.708;9.030;2022-07-11T13:32:22;2.33;;;1.27;;
6354;SDS011;3210;48.708;9.030;2022-07-11T13:34:49;4.27;;;1.30;;
6354;SDS011;3210;48.708;9.030;2022-07-11T13:37:16;3.20;;;1.30;;
6354;SDS011;3210;48.708;9.030;2022-07-11T13:39:44;7.63;;;1.80;;
6354;SDS011;3210;48.708;9.030;2022-07-11T13:42:11;39.50;;;6.40;;
6354;SDS011;3210;48.708;9.030;2022-07-11T13:44:38;6.70;;;1.80;;
6354;SDS011;3210;48.708;9.030;2022-07-11T13:47:04;112.60;;;10.53;;
6354;SDS011;3210;48.708;9.030;2022-07-11T13:49:31;36.70;;;4.97;;
6354;SDS011;3210;48.708;9.030;2022-07-11T13:51:58;8.63;;;1.50;;
6354;SDS011;3210;48.708;9.030;2022-07-11T13:54:25;3.73;;;1.53;;
6354;SDS011;3210;48.708;9.030;2022-07-11T13:56:53;5.47;;;1.40;;
6354;SDS011;3210;48.708;9.030;2022-07-11T13:59:19;1.53;;;1.40;;
6354;SDS011;3210;48.708;9.030;2022-07-11T14:01:46;3.80;;;1.83;;
6354;SDS011;3210;48.708;9.030;2022-07-11T14:04:13;1.47;;;1.37;;
6354;SDS011;3210;48.708;9.030;2022-07-11T14:06:40;7.93;;;1.40;;
6354;SDS011;3210;48.708;9.030;2022-07-11T14:09:07;26.00;;;3.80;;
6354;SDS011;3210;48.708;9.030;2022-07-11T14:11:34;2.20;;;1.67;;
6354;SDS011;3210;48.708;9.030;2022-07-11T14:14:02;3.53;;;1.37;;
6354;SDS011;3210;48.708;9.030;2022-07-11T14:16:29;18.57;;;4.13;;
6354;SDS011;3210;48.708;9.030;2022-07-11T14:18:56;2.53;;;1.63;;
6354;SDS011;3210;48.708;9.030;2022-07-11T14:21:25;2.90;;;1.50;;
6354;SDS011;3210;48.708;9.030;2022-07-11T14:23:53;1.50;;;1.20;;
6354;SDS011;3210;48.708;9.030;2022-07-11T14:26:20;2.53;;;1.33;;
6354;SDS011;3210;48.708;9.030;2022-07-11T14:28:46;6.00;;;1.97;;
6354;SDS011;3210;48.708;9.030;2022-07-11T14:31:15;6.60;;;1.70;;
6354;SDS011;3210;48.708;9.030;2022-07-11T14:33:42;35.93;;;4.13;;
6354;SDS011;3210;48.708;9.030;2022-07-11T14:36:09;46.70;;;6.90;;
6354;SDS011;3210;48.708;9.030;2022-07-11T14:38:36;18.03;;;3.50;;
6354;SDS011;3210;48.708;9.030;2022-07-11T14:41:04;9.03;;;1.60;;
6354;SDS011;3210;48.708;9.030;2022-07-11T14:43:31;1.60;;;1.40;;
6354;SDS011;3210;48.708;9.030;2022-07-11T14:45:58;4.17;;;1.50;;
6354;SDS011;3210;48.708;9.030;2022-07-11T14:48:26;1.30;;;1.13;;
6354;SDS011;3210;48.708;9.030;2022-07-11T14:50:53;3.03;;;1.60;;
6354;SDS011;3210;48.708;9.030;2022-07-11T14:53:20;4.67;;;1.60;;
6354;SDS011;3210;48.708;9.030;2022-07-11T14:55:47;6.40;;;1.40;;
6354;SDS011;3210;48.708;9.030;2022-07-11T14:58:14;2.03;;;1.43;;
6354;SDS011;3210;48.708;9.030;2022-07-11T15:00:41;5.50;;;1.77;;
6354;SDS011;3210;48.708;9.030;2022-07-11T15:03:09;4.00;;;1.30;;
6354;SDS011;3210;48.708;9.030;2022-07-11T15:05:54;8.03;;;1.50;;
6354;SDS011;3210;48.708;9.030;2022-07-11T15:08:21;1.30;;;1.20;;
6354;SDS011;3210;48.708;9.030;2022-07-11T15:11:05;5.00;;;1.30;;
6354;SDS011;3210;48.708;9.030;2022-07-11T15:13:49;3.33;;;1.30;;
6354;SDS011;3210;48.708;9.030;2022-07-11T15:16:16;6.40;;;1.53;;
6354;SDS011;3210;48.708;9.030;2022-07-11T15:18:43;4.13;;;1.57;;
6354;SDS011;3210;48.708;9.030;2022-07-11T15:21:11;2.23;;;1.47;;
6354;SDS011;3210;48.708;9.030;2022-07-11T15:23:38;1.90;;;1.60;;
6354;SDS011;3210;48.708;9.030;2022-07-11T15:26:04;1.77;;;1.53;;
6354;SDS011;3210;48.708;9.030;2022-07-11T15:28:31;4.20;;;1.70;;
6354;SDS011;3210;48.708;9.030;2022-07-11T15:30:58;3.00;;;1.60;;
6354;SDS011;3210;48.708;9.030;2022-07-11T15:33:25;1.70;;;1.60;;